createdAt,value
2019-03-16T00:00:16.675Z,0
2019-03-16T00:01:15.382Z,0
2019-03-16T00:02:14.111Z,0
2019-03-16T00:03:12.798Z,0
2019-03-16T00:04:11.495Z,0
2019-03-16T00:05:10.143Z,0
2019-03-16T00:06:08.801Z,0
2019-03-16T00:07:07.437Z,0
2019-03-16T00:08:06.241Z,0
2019-03-16T00:09:04.939Z,0
2019-03-16T00:10:03.690Z,0
2019-03-16T00:11:02.337Z,0
2019-03-16T00:12:01.110Z,0
2019-03-16T00:12:59.874Z,0
2019-03-16T00:13:58.627Z,0
2019-03-16T00:14:57.232Z,0
2019-03-16T00:15:55.971Z,0
2019-03-16T00:16:54.557Z,0
2019-03-16T00:17:53.175Z,0
2019-03-16T00:18:51.905Z,0
2019-03-16T00:19:50.680Z,0
2019-03-16T00:20:49.337Z,0
2019-03-16T00:21:48.004Z,0
2019-03-16T00:22:46.812Z,0
2019-03-16T00:26:25.773Z,0
2019-03-16T00:27:24.442Z,0
2019-03-16T00:28:23.113Z,0
2019-03-16T00:29:21.949Z,0
2019-03-16T00:30:20.741Z,0
2019-03-16T00:31:19.399Z,0
2019-03-16T00:32:18.020Z,0
2019-03-16T00:33:16.818Z,0
2019-03-16T00:34:15.572Z,0
2019-03-16T00:35:14.423Z,0
2019-03-16T00:36:13.099Z,0
2019-03-16T00:37:12.072Z,0
2019-03-16T00:38:10.774Z,0
2019-03-16T00:39:09.505Z,0
2019-03-16T00:40:08.241Z,0
2019-03-16T00:41:07.202Z,0
2019-03-16T00:42:06.004Z,0
2019-03-16T00:43:04.674Z,0
2019-03-16T00:44:03.300Z,0
2019-03-16T00:45:01.989Z,0
2019-03-16T00:54:36.685Z,0
2019-03-16T00:55:35.311Z,0
2019-03-16T00:56:33.918Z,0
2019-03-16T00:57:32.600Z,0
2019-03-16T00:58:31.332Z,0
2019-03-16T00:59:30.181Z,0
2019-03-16T01:00:28.739Z,0
2019-03-16T01:01:27.393Z,0
2019-03-16T01:02:27.495Z,0
2019-03-16T01:03:24.754Z,0
2019-03-16T01:04:23.405Z,0
2019-03-16T01:05:22.218Z,0
2019-03-16T01:06:20.798Z,0
2019-03-16T01:07:19.428Z,0
2019-03-16T01:08:18.104Z,0
2019-03-16T01:09:16.727Z,0
2019-03-16T01:10:15.445Z,0
2019-03-16T01:11:13.970Z,0
2019-03-16T01:12:12.753Z,0
2019-03-16T01:13:11.430Z,0
2019-03-16T01:14:10.208Z,0
2019-03-16T01:15:08.846Z,0
2019-03-16T01:16:07.519Z,0
2019-03-16T01:17:06.365Z,0
2019-03-16T01:18:04.940Z,0
2019-03-16T01:19:03.557Z,0
2019-03-16T01:20:02.423Z,0
2019-03-16T01:21:01.099Z,0
2019-03-16T01:21:59.813Z,0
2019-03-16T01:22:58.450Z,0
2019-03-16T01:23:57.093Z,0
2019-03-16T01:24:55.801Z,0
2019-03-16T01:25:54.474Z,0
2019-03-16T01:26:53.084Z,0
2019-03-16T01:27:51.709Z,0
2019-03-16T01:28:50.455Z,0
2019-03-16T01:29:49.069Z,0
2019-03-16T01:30:47.801Z,0
2019-03-16T01:31:46.514Z,0
2019-03-16T01:32:45.168Z,0
2019-03-16T01:33:43.798Z,0
2019-03-16T01:34:44.127Z,0
2019-03-16T01:35:41.048Z,0
2019-03-16T01:36:39.633Z,0
2019-03-16T01:37:38.374Z,0
2019-03-16T01:38:36.989Z,0
2019-03-16T01:39:35.635Z,0
2019-03-16T01:40:34.229Z,0
2019-03-16T01:41:32.822Z,0
2019-03-16T01:42:31.461Z,0
2019-03-16T01:43:30.172Z,0
2019-03-16T01:44:28.934Z,0
2019-03-16T01:45:27.673Z,0
2019-03-16T01:46:26.288Z,0
2019-03-16T01:47:24.949Z,0
2019-03-16T01:48:23.562Z,0
2019-03-16T01:49:22.355Z,0
2019-03-16T01:50:21.747Z,0
2019-03-16T01:51:19.857Z,0
2019-03-16T01:52:18.489Z,0
2019-03-16T01:53:17.275Z,0
2019-03-16T01:54:16.094Z,0
2019-03-16T01:55:14.759Z,0
2019-03-16T01:56:13.381Z,0
2019-03-16T01:57:12.042Z,0
2019-03-16T01:58:10.793Z,0
2019-03-16T01:59:09.420Z,0
2019-03-16T02:00:08.091Z,0
2019-03-16T02:01:06.774Z,0
2019-03-16T02:02:05.397Z,0
2019-03-16T02:03:04.037Z,0
2019-03-16T02:04:02.678Z,0
2019-03-16T02:05:01.326Z,0
2019-03-16T02:05:59.973Z,0
2019-03-16T02:06:58.703Z,0
2019-03-16T02:07:57.365Z,0
2019-03-16T02:08:56.072Z,0
2019-03-16T02:09:54.726Z,0
2019-03-16T02:10:53.378Z,0
2019-03-16T02:11:52.306Z,0
2019-03-16T02:12:50.952Z,0
2019-03-16T02:13:49.623Z,0
2019-03-16T02:14:48.284Z,0
2019-03-16T02:15:46.905Z,0
2019-03-16T02:16:45.546Z,0
2019-03-16T02:17:44.247Z,0
2019-03-16T02:18:42.890Z,0
2019-03-16T02:19:41.551Z,0
2019-03-16T02:20:40.260Z,0
2019-03-16T02:21:38.971Z,0
2019-03-16T02:22:37.595Z,0
2019-03-16T02:23:36.510Z,0
2019-03-16T02:24:35.161Z,0
2019-03-16T02:25:33.837Z,0
2019-03-16T02:26:32.427Z,0
2019-03-16T02:27:31.074Z,0
2019-03-16T02:28:29.719Z,0
2019-03-16T02:29:28.420Z,0
2019-03-16T02:30:27.047Z,0
2019-03-16T02:31:25.672Z,0
2019-03-16T02:32:24.439Z,0
2019-03-16T02:33:23.110Z,0
2019-03-16T02:34:21.705Z,0
2019-03-16T02:35:20.542Z,0
2019-03-16T02:36:19.165Z,0
2019-03-16T02:37:17.880Z,0
2019-03-16T02:38:16.572Z,0
2019-03-16T02:39:15.179Z,0
2019-03-16T02:40:13.788Z,0
2019-03-16T02:41:12.622Z,0
2019-03-16T02:42:11.394Z,0
2019-03-16T02:43:10.301Z,0
2019-03-16T02:44:11.255Z,0
2019-03-16T02:45:07.556Z,0
2019-03-16T02:46:06.299Z,0
2019-03-16T02:47:04.969Z,0
2019-03-16T02:48:03.595Z,0
2019-03-16T02:49:02.253Z,0
2019-03-16T02:50:00.950Z,0
2019-03-16T02:50:59.523Z,0
2019-03-16T02:51:58.253Z,0
2019-03-16T02:52:56.849Z,0
2019-03-16T02:53:55.501Z,0
2019-03-16T02:54:54.292Z,0
2019-03-16T02:55:52.942Z,0
2019-03-16T02:56:51.578Z,0
2019-03-16T02:57:50.404Z,0
2019-03-16T02:58:49.036Z,0
2019-03-16T02:59:47.663Z,0
2019-03-16T03:00:46.362Z,0
2019-03-16T03:01:45.234Z,0
2019-03-16T03:02:44.078Z,0
2019-03-16T03:03:42.873Z,0
2019-03-16T03:04:45.594Z,0
2019-03-16T03:05:40.131Z,0
2019-03-16T03:06:38.803Z,0
2019-03-16T03:07:37.670Z,0
2019-03-16T03:08:36.512Z,0
2019-03-16T03:09:35.144Z,0
2019-03-16T03:10:33.755Z,0
2019-03-16T03:11:32.493Z,0
2019-03-16T03:12:31.150Z,0
2019-03-16T03:13:29.918Z,0
2019-03-16T03:14:28.558Z,0
2019-03-16T03:15:27.187Z,0
2019-03-16T03:16:25.951Z,0
2019-03-16T03:17:24.588Z,0
2019-03-16T03:18:23.242Z,0
2019-03-16T03:19:22.143Z,0
2019-03-16T03:20:20.676Z,0
2019-03-16T03:21:19.384Z,0
2019-03-16T03:22:18.234Z,0
2019-03-16T03:23:16.944Z,0
2019-03-16T03:24:16.407Z,0
2019-03-16T03:25:15.157Z,0
2019-03-16T03:26:13.835Z,0
2019-03-16T03:27:12.603Z,0
2019-03-16T03:28:11.284Z,0
2019-03-16T03:29:10.221Z,0
2019-03-16T03:30:08.901Z,0
2019-03-16T03:31:07.490Z,0
2019-03-16T03:32:06.219Z,0
2019-03-16T03:33:04.834Z,0
2019-03-16T03:34:03.559Z,0
2019-03-16T03:35:02.419Z,0
2019-03-16T03:36:00.986Z,0
2019-03-16T03:36:59.592Z,0
2019-03-16T03:37:58.354Z,0
2019-03-16T03:38:56.982Z,0
2019-03-16T03:39:55.982Z,0
2019-03-16T03:40:54.607Z,0
2019-03-16T03:41:53.258Z,0
2019-03-16T03:42:51.943Z,0
2019-03-16T03:43:50.612Z,0
2019-03-16T03:44:49.284Z,0
2019-03-16T03:45:47.993Z,0
2019-03-16T03:46:46.856Z,0
2019-03-16T03:47:45.637Z,0
2019-03-16T03:48:44.452Z,0
2019-03-16T03:49:43.080Z,0
2019-03-16T03:50:41.700Z,0
2019-03-16T03:51:40.668Z,0
2019-03-16T03:52:39.298Z,0
2019-03-16T03:55:19.718Z,0
2019-03-16T03:56:18.580Z,0
2019-03-16T03:57:17.230Z,0
2019-03-16T03:58:16.010Z,0
2019-03-16T03:59:14.678Z,0
2019-03-16T04:00:13.310Z,0
2019-03-16T04:01:12.230Z,0
2019-03-16T04:02:10.833Z,0
2019-03-16T04:03:09.519Z,0
2019-03-16T04:04:14.698Z,0
2019-03-16T04:05:06.810Z,0
2019-03-16T04:06:05.505Z,0
2019-03-16T04:07:04.293Z,0
2019-03-16T04:08:02.981Z,0
2019-03-16T04:09:01.576Z,0
2019-03-16T04:24:19.619Z,0
2019-03-16T04:25:18.442Z,0
2019-03-16T04:26:17.118Z,0
2019-03-16T04:27:16.787Z,0
2019-03-16T04:28:14.554Z,0
2019-03-16T04:29:13.150Z,0
2019-03-16T04:30:11.821Z,0
2019-03-16T04:31:10.587Z,0
2019-03-16T04:32:09.252Z,0
2019-03-16T04:33:07.976Z,0
2019-03-16T04:34:06.687Z,0
2019-03-16T04:35:05.208Z,0
2019-03-16T04:36:03.847Z,0
2019-03-16T04:37:02.697Z,0
2019-03-16T04:38:01.375Z,0
2019-03-16T04:39:00.172Z,0
2019-03-16T04:39:58.832Z,0
2019-03-16T04:40:57.502Z,0
2019-03-16T04:41:56.325Z,0
2019-03-16T04:42:54.940Z,0
2019-03-16T04:43:53.712Z,0
2019-03-16T04:44:52.326Z,0
2019-03-16T04:45:50.966Z,0
2019-03-16T04:46:49.767Z,0
2019-03-16T04:47:48.441Z,0
2019-03-16T04:48:47.149Z,0
2019-03-16T04:49:45.801Z,0
2019-03-16T04:50:44.416Z,0
2019-03-16T04:51:43.035Z,0
2019-03-16T04:52:41.654Z,0
2019-03-16T04:53:40.433Z,0
2019-03-16T04:54:39.070Z,0
2019-03-16T04:55:37.829Z,0
2019-03-16T04:56:36.513Z,0
2019-03-16T04:57:35.210Z,0
2019-03-16T04:58:34.072Z,0
2019-03-16T04:59:32.749Z,0
2019-03-16T05:00:31.424Z,0
2019-03-16T05:01:30.072Z,0
2019-03-16T05:02:28.766Z,0
2019-03-16T05:03:27.381Z,0
2019-03-16T05:04:26.129Z,0
2019-03-16T05:05:24.785Z,0
2019-03-16T05:06:23.452Z,0
2019-03-16T05:07:22.073Z,0
2019-03-16T05:08:20.710Z,0
2019-03-16T05:09:19.352Z,0
2019-03-16T05:10:18.392Z,0
2019-03-16T05:11:17.145Z,0
2019-03-16T05:12:15.835Z,0
2019-03-16T05:13:14.601Z,0
2019-03-16T05:14:13.226Z,0
2019-03-16T05:15:12.067Z,0
2019-03-16T05:16:11.035Z,0
2019-03-16T05:17:09.772Z,0
2019-03-16T05:18:08.461Z,0
2019-03-16T05:19:07.150Z,0
2019-03-16T05:20:05.821Z,0
2019-03-16T05:21:04.403Z,0
2019-03-16T05:22:03.065Z,0
2019-03-16T05:23:01.694Z,4
2019-03-16T05:24:02.827Z,4
2019-03-16T05:24:59.915Z,4
2019-03-16T05:25:58.552Z,0
2019-03-16T05:26:57.235Z,4
2019-03-16T05:27:55.877Z,8
2019-03-16T05:28:54.506Z,4
2019-03-16T05:29:53.112Z,8
2019-03-16T05:30:51.784Z,8
2019-03-16T05:31:50.850Z,8
2019-03-16T05:32:49.035Z,8
2019-03-16T05:33:47.864Z,8
2019-03-16T05:34:56.117Z,8
2019-03-16T05:35:45.192Z,12
2019-03-16T05:36:44.055Z,12
2019-03-16T05:37:42.734Z,16
2019-03-16T05:38:41.522Z,16
2019-03-16T05:39:40.049Z,20
2019-03-16T05:40:38.659Z,24
2019-03-16T05:41:37.317Z,28
2019-03-16T05:42:36.172Z,28
2019-03-16T05:43:35.713Z,24
2019-03-16T05:44:34.534Z,24
2019-03-16T05:45:33.154Z,32
2019-03-16T05:46:31.734Z,48
2019-03-16T05:47:30.538Z,44
2019-03-16T05:48:29.256Z,44
2019-03-16T05:49:27.937Z,56
2019-03-16T05:50:26.599Z,56
2019-03-16T05:51:25.287Z,60
2019-03-16T05:52:23.932Z,72
2019-03-16T05:53:22.657Z,92
2019-03-16T05:54:21.462Z,104
2019-03-16T05:55:20.113Z,116
2019-03-16T05:56:18.780Z,132
2019-03-16T05:57:17.461Z,128
2019-03-16T05:58:16.304Z,128
2019-03-16T05:59:14.971Z,140
2019-03-16T06:00:13.648Z,144
2019-03-16T06:02:54.286Z,168
2019-03-16T06:03:52.963Z,180
2019-03-16T06:04:51.696Z,172
2019-03-16T06:05:50.499Z,148
2019-03-16T06:06:49.278Z,204
2019-03-16T06:07:48.247Z,256
2019-03-16T06:08:46.883Z,272
2019-03-16T06:09:45.552Z,348
2019-03-16T06:10:44.479Z,292
2019-03-16T06:11:43.120Z,256
2019-03-16T06:12:41.801Z,224
2019-03-16T06:13:40.468Z,224
2019-03-16T06:14:39.127Z,244
2019-03-16T06:20:14.945Z,380
2019-03-16T06:23:13.398Z,752
2019-03-16T06:24:12.100Z,828
2019-03-16T06:25:10.812Z,896
2019-03-16T06:26:09.579Z,1056
2019-03-16T06:28:49.913Z,484
2019-03-16T06:29:48.805Z,484
2019-03-16T06:30:47.507Z,512
2019-03-16T06:31:46.256Z,544
2019-03-16T06:35:29.213Z,884
2019-03-16T06:36:24.185Z,1084
2019-03-16T06:37:22.838Z,1076
2019-03-16T06:38:21.888Z,920
2019-03-16T06:39:22.329Z,824
2019-03-16T06:40:21.132Z,728
2019-03-16T06:41:19.950Z,628
2019-03-16T06:42:18.957Z,612
2019-03-16T06:43:17.594Z,612
2019-03-16T06:44:16.893Z,648
2019-03-16T06:45:16.446Z,676
2019-03-16T06:46:15.962Z,684
2019-03-16T06:47:14.803Z,724
2019-03-16T06:51:38.691Z,808
2019-03-16T06:52:37.477Z,800
2019-03-16T06:53:36.377Z,848
2019-03-16T06:54:35.082Z,896
2019-03-16T06:55:33.777Z,880
2019-03-16T06:58:13.854Z,924
2019-03-16T07:00:54.369Z,840
2019-03-16T07:04:24.704Z,944
2019-03-16T07:05:25.062Z,916
2019-03-16T07:06:22.254Z,960
2019-03-16T07:07:21.780Z,972
2019-03-16T07:08:20.863Z,928
2019-03-16T07:09:19.549Z,1052
2019-03-16T07:10:19.197Z,1108
2019-03-16T07:12:59.482Z,1024
2019-03-16T07:13:58.373Z,792
2019-03-16T07:14:56.991Z,792
2019-03-16T07:15:55.827Z,744
2019-03-16T07:18:36.590Z,852
2019-03-16T07:19:35.649Z,808
2019-03-16T07:20:35.757Z,728
2019-03-16T07:21:35.095Z,796
2019-03-16T07:22:33.864Z,744
2019-03-16T07:23:32.900Z,676
2019-03-16T07:24:31.424Z,636
2019-03-16T07:25:30.236Z,500
2019-03-16T07:26:28.949Z,428
2019-03-16T07:27:27.677Z,416
2019-03-16T07:28:26.474Z,372
2019-03-16T07:31:10.709Z,304
2019-03-16T07:33:52.869Z,408
2019-03-16T07:34:51.491Z,432
2019-03-16T07:35:50.250Z,492
2019-03-16T07:36:49.010Z,592
2019-03-16T07:37:47.844Z,644
2019-03-16T07:38:46.664Z,652
2019-03-16T07:39:45.291Z,728
2019-03-16T07:40:43.994Z,936
2019-03-16T07:41:42.703Z,972
2019-03-16T07:42:41.797Z,1076
2019-03-16T07:43:40.575Z,1156
2019-03-16T07:44:39.251Z,1236
2019-03-16T07:45:38.011Z,1152
2019-03-16T07:46:36.829Z,1060
2019-03-16T07:47:35.480Z,1044
2019-03-16T07:48:34.230Z,1148
2019-03-16T07:49:32.901Z,1356
2019-03-16T07:50:31.563Z,1588
2019-03-16T07:51:30.365Z,1736
2019-03-16T07:52:29.064Z,1732
2019-03-16T07:53:28.130Z,1568
2019-03-16T07:54:26.767Z,1688
2019-03-16T07:55:25.807Z,1880
2019-03-16T07:56:24.466Z,2256
2019-03-16T07:57:23.129Z,2160
2019-03-16T07:58:21.728Z,2100
2019-03-16T07:59:20.532Z,1740
2019-03-16T08:00:19.268Z,1792
2019-03-16T08:01:17.978Z,1456
2019-03-16T08:02:16.621Z,1288
2019-03-16T08:03:15.172Z,1288
2019-03-16T08:04:14.154Z,1088
2019-03-16T08:05:18.451Z,1104
2019-03-16T08:07:52.936Z,1364
2019-03-16T08:08:51.580Z,1432
2019-03-16T08:09:50.449Z,1512
2019-03-16T08:23:53.640Z,1328
2019-03-16T08:24:49.254Z,1296
2019-03-16T08:27:37.406Z,1796
2019-03-16T08:28:36.525Z,1756
2019-03-16T08:29:35.253Z,1720
2019-03-16T08:30:34.071Z,1588
2019-03-16T08:34:07.124Z,1832
2019-03-16T08:35:05.706Z,1852
2019-03-16T08:36:04.601Z,1868
2019-03-16T08:37:03.129Z,1908
2019-03-16T08:38:01.725Z,1804
2019-03-16T08:39:00.443Z,1660
2019-03-16T08:39:59.051Z,1592
2019-03-16T08:40:57.698Z,1496
2019-03-16T08:41:56.289Z,1400
2019-03-16T08:42:55.092Z,1488
2019-03-16T08:43:53.769Z,1396
2019-03-16T08:44:52.570Z,1364
2019-03-16T08:45:51.173Z,1452
2019-03-16T08:46:49.747Z,1596
2019-03-16T08:47:48.368Z,1964
2019-03-16T08:48:47.004Z,2084
2019-03-16T08:49:45.746Z,1924
2019-03-16T08:50:44.429Z,1876
2019-03-16T08:51:43.029Z,2292
2019-03-16T08:52:41.731Z,2648
2019-03-16T08:53:40.477Z,2920
2019-03-16T08:54:39.104Z,2632
2019-03-16T08:57:21.099Z,1892
2019-03-16T08:58:22.050Z,1752
2019-03-16T08:59:24.180Z,1656
2019-03-16T09:00:20.233Z,1984
2019-03-16T09:01:19.102Z,2696
2019-03-16T09:02:17.839Z,3248
2019-03-16T09:03:17.290Z,4160
2019-03-16T09:04:16.365Z,4564
2019-03-16T09:07:56.487Z,4544
2019-03-16T09:08:55.609Z,4824
2019-03-16T21:16:36.476Z,0
2019-03-16T21:19:16.880Z,0
2019-03-16T21:22:59.999Z,0
2019-03-16T21:25:42.130Z,0
2019-03-16T21:28:22.562Z,0
2019-03-16T21:31:05.484Z,0
2019-03-16T21:32:07.820Z,0
2019-03-16T21:34:48.344Z,0
2019-03-16T21:37:28.560Z,0
2019-03-16T21:40:09.101Z,0
2019-03-16T22:09:24.844Z,0
2019-03-16T22:10:23.487Z,0
2019-03-16T22:11:22.202Z,0
2019-03-16T22:24:54.241Z,0
2019-03-16T22:25:53.256Z,0
2019-03-16T22:28:34.998Z,0
2019-03-16T22:29:33.652Z,0
2019-03-16T22:30:32.649Z,0
2019-03-16T22:31:31.287Z,0
2019-03-16T22:32:29.934Z,0
2019-03-16T22:33:28.669Z,0
2019-03-16T22:34:27.393Z,0
2019-03-16T22:35:25.977Z,0
2019-03-16T22:36:24.798Z,0
2019-03-16T22:37:23.473Z,0
2019-03-16T22:38:22.067Z,0
2019-03-16T22:39:20.965Z,0
2019-03-16T22:40:19.614Z,0
2019-03-16T22:41:18.206Z,0
2019-03-16T22:42:17.316Z,0
2019-03-16T22:43:15.939Z,0
2019-03-16T22:44:14.586Z,0
2019-03-16T22:45:13.225Z,0
2019-03-16T22:46:11.882Z,0
2019-03-16T22:47:10.769Z,0
2019-03-16T22:48:09.422Z,0
2019-03-16T22:49:08.118Z,0
2019-03-16T22:50:06.770Z,0
2019-03-16T22:51:05.440Z,0
2019-03-16T22:52:04.298Z,0
2019-03-16T22:53:03.039Z,0
2019-03-16T22:54:01.693Z,0
2019-03-16T22:55:00.460Z,0
2019-03-16T22:55:59.039Z,0
2019-03-16T22:56:57.711Z,0
2019-03-16T22:57:56.431Z,0
2019-03-16T22:58:55.394Z,0
2019-03-16T22:59:54.090Z,0
2019-03-16T23:00:52.920Z,0
2019-03-16T23:01:51.593Z,0
2019-03-16T23:02:50.300Z,0
2019-03-16T23:03:49.281Z,0
2019-03-16T23:04:47.899Z,0
2019-03-16T23:05:46.590Z,0
2019-03-16T23:06:45.298Z,0
2019-03-16T23:07:44.076Z,0
2019-03-16T23:08:43.546Z,0
2019-03-16T23:09:42.137Z,0
2019-03-16T23:10:40.856Z,0
2019-03-16T23:11:39.451Z,0
2019-03-16T23:12:38.133Z,0
2019-03-16T23:13:36.978Z,0
2019-03-16T23:14:35.646Z,0
2019-03-16T23:15:34.290Z,0
2019-03-16T23:16:32.964Z,0
2019-03-16T23:17:31.571Z,0
2019-03-16T23:18:30.256Z,0
2019-03-16T23:19:29.032Z,0
2019-03-16T23:22:10.273Z,0
2019-03-16T23:23:09.215Z,0
2019-03-16T23:24:07.911Z,0
2019-03-16T23:25:06.502Z,0
2019-03-16T23:26:05.137Z,0
2019-03-16T23:27:03.766Z,0
2019-03-16T23:28:02.376Z,0
2019-03-16T23:29:01.066Z,0
2019-03-16T23:50:27.801Z,0
2019-03-16T23:51:26.481Z,0
2019-03-16T23:52:25.125Z,0
2019-03-16T23:53:23.698Z,0
2019-03-16T23:54:22.252Z,0
2019-03-16T23:55:21.148Z,0
2019-03-16T23:56:19.776Z,0
2019-03-16T23:57:18.529Z,0
2019-03-16T23:58:17.146Z,0
2019-03-16T23:59:15.758Z,0
